Main page
METAR-TAF:

METAR-TAF

Airports :

Samedan Airport

St. Moritz, Switzerland

latitude: 46-32-03N, longitude: 9-53-03E, elevation: 1707 m

Current weather observation

The report was made 9 minutes ago, at 09:20 UTC
Wind 4 kt from the East/Northeast
Temperature 19°C
Humidity 52%
Pressure 1022 hPa
Visibility 10 km or more
Few clouds at a height of 5500 ft

METAR: LSZS 170920Z 06004KT 9999 FEW055 19/09 Q1022 RMK H

Time: 11:29 (09:29 UTC)

Forecast

The report was made 1 hour and 4 minutes ago, at 08:25 UTC
Forecast valid from 17 at 09 UTC to 17 at 18 UTC
Wind 3 kt from variable directions
Visibility 10 km or more
Scattered clouds at a height of 4000 ft
Probability 40% :
Temporary
from 17 at 14 UTC to 17 at 18 UTC
Wind 15 kt from the Southwest with gusts up to 25 kt
Visibility: 4000 m
Scattered clouds at a height of 5000 ft, Cumulonimbus.
thunderstorm, rain

TAF: LSZS 170825Z 1709/1718 VRB03KT 9999 SCT040 TX22/1714Z PROB40 TEMPO 1714/1718 22015G25KT 4000 TSRA SCT050CB

Weather observations and forecasts of more than 4000 airports (METAR and TAF reports).

The available stations are represented by yellow and red dots on the map.

Hover mouse over dot to see the name of the station.

Then click to see weather observations and forecasts.

To change the map : click on the green buttons with a black cross to zoom in, on the green button with a dash to zoom out, or on the green arrows for adjacent maps.


METAR-TAF: